Aérodrome :
LOGIN :

S'inscrire | Disclaimer

   EN    FR    IT 

 










Légende :    VFR   VFR Marginal   IFR   IFR Intensif   IFR Très Intensif
Visi : 
Plafond : 
>= 8 km
>= 3000ft
5 à 8 km
1000 à 3000 ft
1500m à 5 km
500 à 1000 ft
800 à 1500m
200 à 500 ft
< 800m
< 200 ft
Symboles :   Orages  Brouillard  Fortes neiges  Fortes précipitations  Vent > 20 kt
SIGMETs :   Divers  Orages  Givrage  Turbulence  Onde Orograph.  Cendres Volcan.







- Altitude de l'aérodrome : 138 ft
- Code IATA : BIO


LEBB - Bilbao

DERNIER METAR :
  • 230130Z AUTO 30003KT 260V340 4800 BR BKN004/// 14/14 Q1020

METARs EXPIRÉS :
  • 230100Z AUTO 32006KT 7000 BKN005/// 15/14 Q1020
  • 230030Z AUTO 32007KT 9999 FEW006/// BKN010/// 15/14 Q1020
  • 230000Z AUTO 33005KT 9999 SCT007/// BKN012/// 15/14 Q1020
  • 222330Z AUTO 32005KT 9999 SCT006/// BKN012/// 15/15 Q1020
  • 222300Z AUTO 32004KT 7000 BKN011/// 15/15 Q1020

TAF TAF LEBB
Valide du 23 à 00h jusqu'au 24 à 00h UTC


222300Z 2300/2324 VRB04KT 9999 SCT010 BKN025 TX18/2315Z TN14/2305Z
TEMPO 2300/2306 3000 BR BKN010
PROB40
TEMPO 2300/2306 BKN005
TEMPO 2306/2318 30010KT
Pas de NOTAMs connus pour ce terrain.
1 SIGMET publié pour la FIR Madrid (LECM) :
 
Orages noyés dans la masse
LECM SIGMET 16 VALID 230100/230500 LEVA
LECM MADRID FIR/UIR EMBD TS OBS AT 2358Z WI N3559 W00640 - N3942 W00609 - N3944 W00245 - N36 W00317 - N3559 W00640 TOP FL360 MOV NNE 20KT NC=



MET'MAP, la Météo Aéronautique d'un coup d'oeil ! - Copyright ORBIFLY Décembre 2007 - Disclaimer

ORBIFLY MET'MAP TEAM :

Programmation & Développement : Alexandra Zaïnal
Conception & Développement : Baudouin d'Aumeries
Co-Programmation & Développement : Marc-Olivier Méhu
Soutien technique & logistique : Manuel Goepfert

Contact : metmap@orbifly.com




SOURCES & CREDITS :

   NOAA